Portada
METAR-TAF:

METAR-TAF

Aeroports :

Laupheim, Alemanya

latitud: 48-13N, longitud: 009-55E, altitud: 538 m

Observació

L'informe es va fer fa 1 hora i 5 minuts, a les 16:20 UTC
Vent 6 kt del Nord-Oest
Temperatura 25°C
Humitat 32%
Pressió 1012 hPa
Visibilitat 10 km o més
Escasses núvols a una alçada de 6000 ft
Núvols disperses a una alçada de 27000 ft

METAR: ETHL 171620Z 32006KT 9999 FEW060 SCT270 25/07 Q1012 BLU+

Hora: 19:25 (17:25 UTC)

Pronòstic

L'informe es va fer fa 2 hores i 53 minuts, a les 14:32 UTC
Pronòstic vàlid del 17 a les 14 UTC al 17 a les 23 UTC
Vent 8 kt del Oest/Nord-Oest
Visibilitat: 1500 m
Escasses núvols a una alçada de 6000 ft
Núvols disperses a una alçada de 27000 ft

TAF: ETHL 171432Z 1714/1723 30008KT 9999 NSW FEW060 SCT270 CANCEL 1500

Observacions i pronòstics meteorològics de més de 4000 aeroports (METAR i TAF).

Les estacions disponibles són els punts grocs i vermells al mapa.

Posi el ratolí al punt desitjat per veure el nom de l'estació.

Feu clic per veure les observacions i els pronòstics meteorològics.

Per canviar el mapa: feu clic els botons verds amb una creu de color negre per apropar; al botó verd amb un guió per allunyar la imatge; o en les fletxes verdes per a mapes adjacents.


METAR-TAF: